Time;durP1;ratioP1;P1;durP2;ratioP2;P2;SDS_P1;SDS_P2;PMS_P1;PMS_P2;Temp;Humidity;BMP_temperature;BMP_pressure;BME280_temperature;BME280_humidity;BME280_pressure;Samples;Min_cycle;Max_cycle;Signal;HPM_P1;HPM_P2
2023/04/13 00:00:07;;;;;;;0.30;0.30;;;;;;;;;;5052003;28;20209;-29
2023/04/13 00:02:37;;;;;;;0.30;0.30;;;;;;;;;;5037931;28;20564;-27
2023/04/13 00:05:06;;;;;;;0.30;0.30;;;;;;;;;;5052178;28;20210;-26
2023/04/13 00:07:33;;;;;;;0.13;0.13;;;;;;;;;;5051837;28;20216;-28
2023/04/13 00:10:02;;;;;;;0.27;0.20;;;;;;;;;;5047094;28;20207;-27
2023/04/13 00:12:32;;;;;;;0.60;0.40;;;;;;;;;;5042389;28;20198;-30
2023/04/13 00:14:59;;;;;;;0.20;0.20;;;;;;;;;;5051539;28;20232;-26
2023/04/13 00:17:26;;;;;;;0.40;0.40;;;;;;;;;;5046710;28;20283;-26
2023/04/13 00:19:56;;;;;;;0.43;0.30;;;;;;;;;;5047017;28;20206;-29
2023/04/13 00:22:23;;;;;;;0.20;0.20;;;;;;;;;;5054279;28;20321;-26
2023/04/13 00:24:53;;;;;;;1.40;0.40;;;;;;;;;;5049556;28;20221;-29
2023/04/13 00:27:25;;;;;;;0.53;0.20;;;;;;;;;;5052675;28;20205;-27
2023/04/13 00:29:55;;;;;;;0.40;0.30;;;;;;;;;;5054488;28;20220;-28
2023/04/13 00:32:22;;;;;;;0.10;0.10;;;;;;;;;;5053412;28;20206;-30
2023/04/13 00:39:54;;;;;;;0.30;0.30;;;;;;;;;;5051133;28;20236;-31
2023/04/13 00:42:21;;;;;;;0.23;0.23;;;;;;;;;;5042343;28;20320;-31
2023/04/13 00:44:48;;;;;;;0.93;0.40;;;;;;;;;;5047378;28;20218;-32
2023/04/13 00:47:18;;;;;;;0.50;0.30;;;;;;;;;;5043279;28;20263;-29
2023/04/13 00:49:46;;;;;;;0.33;0.33;;;;;;;;;;5051419;28;20293;-33
2023/04/13 00:52:13;;;;;;;0.20;0.20;;;;;;;;;;5051653;28;20673;-34
2023/04/13 00:54:41;;;;;;;0.40;0.40;;;;;;;;;;5047941;28;20230;-33
2023/04/13 00:57:08;;;;;;;0.30;0.30;;;;;;;;;;5040040;28;20860;-31
2023/04/13 00:59:37;;;;;;;0.33;0.33;;;;;;;;;;5045025;28;20213;-32
2023/04/13 01:02:06;;;;;;;1.90;0.37;;;;;;;;;;5035657;28;20222;-32
2023/04/13 01:04:34;;;;;;;0.27;0.27;;;;;;;;;;5050573;28;20217;-30
2023/04/13 01:07:05;;;;;;;0.33;0.33;;;;;;;;;;5046504;28;20206;-32
2023/04/13 01:09:35;;;;;;;0.30;0.30;;;;;;;;;;5044409;28;20206;-34
2023/04/13 01:12:04;;;;;;;0.40;0.20;;;;;;;;;;5045419;28;20238;-32
2023/04/13 01:14:35;;;;;;;0.27;0.27;;;;;;;;;;5050350;28;20240;-31
2023/04/13 01:17:03;;;;;;;0.30;0.30;;;;;;;;;;5031184;28;20207;-29
2023/04/13 01:19:39;;;;;;;0.97;0.50;;;;;;;;;;5049219;28;20698;-32
2023/04/13 01:22:09;;;;;;;0.30;0.30;;;;;;;;;;5038622;28;20214;-32
2023/04/13 01:24:40;;;;;;;2.67;0.40;;;;;;;;;;5032181;28;20254;-31
2023/04/13 01:27:10;;;;;;;0.20;0.20;;;;;;;;;;5050804;28;20224;-34
2023/04/13 01:29:39;;;;;;;0.10;0.10;;;;;;;;;;5050301;28;20288;-31
2023/04/13 01:32:07;;;;;;;0.50;0.30;;;;;;;;;;5034705;28;20293;-32
2023/04/13 01:34:35;;;;;;;0.93;0.30;;;;;;;;;;5048025;28;20228;-32
2023/04/13 01:37:05;;;;;;;0.53;0.40;;;;;;;;;;5050782;28;20217;-34
2023/04/13 01:39:33;;;;;;;0.30;0.30;;;;;;;;;;5045433;28;20275;-32
2023/04/13 01:42:00;;;;;;;0.40;0.40;;;;;;;;;;5049581;28;20267;-31
2023/04/13 01:44:29;;;;;;;0.10;0.10;;;;;;;;;;5049908;28;20231;-32
2023/04/13 01:47:01;;;;;;;0.47;0.43;;;;;;;;;;5036674;28;20210;-34
2023/04/13 01:49:28;;;;;;;0.33;0.33;;;;;;;;;;5046764;28;20221;-32
2023/04/13 01:51:57;;;;;;;0.50;0.50;;;;;;;;;;5049836;28;20206;-34
2023/04/13 01:54:28;;;;;;;0.40;0.40;;;;;;;;;;5048986;28;20225;-33
2023/04/13 01:56:56;;;;;;;1.17;0.30;;;;;;;;;;5038667;28;20210;-34
2023/04/13 01:59:23;;;;;;;0.27;0.27;;;;;;;;;;5046132;28;20237;-34
2023/04/13 02:01:50;;;;;;;0.40;0.40;;;;;;;;;;5043790;28;20207;-31
2023/04/13 02:04:19;;;;;;;1.77;0.23;;;;;;;;;;5037915;28;20579;-33
2023/04/13 02:06:47;;;;;;;1.60;0.50;;;;;;;;;;5046191;28;20202;-32
2023/04/13 02:09:14;;;;;;;0.33;0.33;;;;;;;;;;5030377;28;20301;-32
2023/04/13 02:11:42;;;;;;;0.33;0.33;;;;;;;;;;5032789;28;20225;-33
2023/04/13 02:14:10;;;;;;;0.40;0.40;;;;;;;;;;5049255;28;20236;-33
2023/04/13 02:16:37;;;;;;;0.93;0.50;;;;;;;;;;5040328;28;20202;-33
2023/04/13 02:19:04;;;;;;;1.50;0.40;;;;;;;;;;5035985;28;20209;-32
2023/04/13 02:21:33;;;;;;;0.33;0.33;;;;;;;;;;5046174;28;20198;-29
2023/04/13 02:24:01;;;;;;;0.60;0.60;;;;;;;;;;5030516;28;20241;-31
2023/04/13 02:26:28;;;;;;;2.37;0.70;;;;;;;;;;5033425;28;20209;-32
2023/04/13 02:28:55;;;;;;;0.83;0.67;;;;;;;;;;5034609;28;20210;-32
2023/04/13 02:31:22;;;;;;;0.50;0.50;;;;;;;;;;5038893;28;20579;-30
2023/04/13 02:33:50;;;;;;;0.63;0.40;;;;;;;;;;5034466;28;20226;-33
2023/04/13 02:36:18;;;;;;;1.67;0.70;;;;;;;;;;5049100;28;20198;-35
2023/04/13 02:38:46;;;;;;;0.93;0.57;;;;;;;;;;5049724;28;20236;-34
2023/04/13 02:41:14;;;;;;;1.07;0.80;;;;;;;;;;5046153;28;20271;-34
2023/04/13 02:43:42;;;;;;;2.40;0.80;;;;;;;;;;5047660;28;20405;-34
2023/04/13 02:46:09;;;;;;;1.53;0.60;;;;;;;;;;5034791;28;20269;-33
2023/04/13 02:48:36;;;;;;;1.07;0.63;;;;;;;;;;5032252;28;20207;-32
2023/04/13 02:51:04;;;;;;;0.60;0.60;;;;;;;;;;5046119;28;20280;-30
2023/04/13 02:53:31;;;;;;;0.93;0.60;;;;;;;;;;5053573;28;20221;-30
2023/04/13 02:55:59;;;;;;;0.50;0.50;;;;;;;;;;5048723;28;20198;-35
2023/04/13 02:58:30;;;;;;;0.50;0.50;;;;;;;;;;5048694;28;20217;-34
2023/04/13 03:00:58;;;;;;;0.73;0.50;;;;;;;;;;5042909;28;20412;-34
2023/04/13 03:03:25;;;;;;;2.90;0.80;;;;;;;;;;5039409;28;20231;-31
2023/04/13 03:05:52;;;;;;;1.40;0.47;;;;;;;;;;5048586;28;20193;-31
2023/04/13 03:08:20;;;;;;;0.60;0.60;;;;;;;;;;5033600;28;20210;-34
2023/04/13 03:10:47;;;;;;;0.40;0.40;;;;;;;;;;5033758;28;20289;-33
2023/04/13 03:13:15;;;;;;;1.30;0.90;;;;;;;;;;5044620;28;20229;-29
2023/04/13 03:15:42;;;;;;;0.57;0.57;;;;;;;;;;5049716;28;20376;-33
2023/04/13 03:18:09;;;;;;;0.70;0.47;;;;;;;;;;5039409;28;20212;-32
2023/04/13 03:20:37;;;;;;;0.50;0.50;;;;;;;;;;5052168;28;20202;-34
2023/04/13 03:23:04;;;;;;;1.60;0.93;;;;;;;;;;5032970;28;20227;-31
2023/04/13 03:25:31;;;;;;;0.40;0.40;;;;;;;;;;5045899;28;20217;-36
2023/04/13 03:27:58;;;;;;;0.60;0.60;;;;;;;;;;5052833;28;20201;-35
2023/04/13 03:30:28;;;;;;;1.17;0.53;;;;;;;;;;5052210;28;20208;-31
2023/04/13 03:32:55;;;;;;;0.50;0.50;;;;;;;;;;5041076;28;20222;-31
2023/04/13 03:35:22;;;;;;;3.23;1.13;;;;;;;;;;5048307;28;20296;-33
2023/04/13 03:37:49;;;;;;;2.00;0.60;;;;;;;;;;5052968;28;20218;-33
2023/04/13 03:40:17;;;;;;;2.50;0.60;;;;;;;;;;5047792;28;20281;-32
2023/04/13 03:42:44;;;;;;;2.00;0.40;;;;;;;;;;5047557;28;20215;-33
2023/04/13 03:45:12;;;;;;;0.40;0.40;;;;;;;;;;5055475;28;20289;-30
2023/04/13 03:47:40;;;;;;;0.47;0.30;;;;;;;;;;5046269;28;20198;-30
2023/04/13 03:50:11;;;;;;;1.47;0.47;;;;;;;;;;5052166;28;20205;-33
2023/04/13 03:52:38;;;;;;;1.43;0.40;;;;;;;;;;5034021;28;20217;-32
2023/04/13 03:55:05;;;;;;;0.77;0.50;;;;;;;;;;5034238;28;20206;-28
2023/04/13 03:57:33;;;;;;;2.17;0.40;;;;;;;;;;5051052;28;20261;-31
2023/04/13 04:00:00;;;;;;;0.80;0.50;;;;;;;;;;5051412;28;20198;-29
2023/04/13 04:02:28;;;;;;;0.40;0.40;;;;;;;;;;5033897;28;20206;-30
2023/04/13 04:04:58;;;;;;;1.73;0.50;;;;;;;;;;5052025;28;20535;-29
2023/04/13 04:07:25;;;;;;;0.43;0.43;;;;;;;;;;5035398;28;20208;-29
2023/04/13 04:09:53;;;;;;;2.13;0.67;;;;;;;;;;5033942;28;20297;-33
2023/04/13 04:12:20;;;;;;;1.20;0.47;;;;;;;;;;5039947;28;20302;-32
2023/04/13 04:14:47;;;;;;;1.03;0.93;;;;;;;;;;5045470;28;20590;-32
2023/04/13 04:17:14;;;;;;;0.40;0.40;;;;;;;;;;5042871;28;20209;-32
2023/04/13 04:19:41;;;;;;;0.70;0.60;;;;;;;;;;5050975;28;20206;-33
2023/04/13 04:22:12;;;;;;;1.13;0.40;;;;;;;;;;5051829;28;20288;-33
2023/04/13 04:24:41;;;;;;;1.07;0.70;;;;;;;;;;5034414;28;20231;-31
2023/04/13 04:27:08;;;;;;;0.90;0.33;;;;;;;;;;5043280;28;20206;-35
2023/04/13 04:29:35;;;;;;;0.60;0.50;;;;;;;;;;5051433;28;20206;-31
2023/04/13 04:32:03;;;;;;;0.97;0.50;;;;;;;;;;5038430;28;20229;-32
2023/04/13 04:34:30;;;;;;;0.53;0.50;;;;;;;;;;5040875;28;20772;-34
2023/04/13 04:36:57;;;;;;;1.03;0.50;;;;;;;;;;5051234;28;20734;-31
2023/04/13 04:39:31;;;;;;;0.50;0.50;;;;;;;;;;5047310;28;20214;-33
2023/04/13 04:42:02;;;;;;;4.93;0.40;;;;;;;;;;5040690;28;20213;-31
2023/04/13 04:44:30;;;;;;;0.70;0.70;;;;;;;;;;5048044;28;20222;-31
2023/04/13 04:46:58;;;;;;;1.77;0.63;;;;;;;;;;5046843;28;20209;-34
2023/04/13 04:49:26;;;;;;;0.70;0.60;;;;;;;;;;5050393;28;20212;-30
2023/04/13 04:51:54;;;;;;;1.17;0.50;;;;;;;;;;5050893;28;20310;-30
2023/04/13 04:54:21;;;;;;;2.27;0.60;;;;;;;;;;5045375;28;20230;-31
2023/04/13 04:56:50;;;;;;;1.03;0.77;;;;;;;;;;5044863;28;20202;-30
2023/04/13 04:59:18;;;;;;;2.10;0.70;;;;;;;;;;5052649;28;20206;-33
2023/04/13 05:01:45;;;;;;;2.57;1.00;;;;;;;;;;5045422;28;20212;-32
2023/04/13 05:04:12;;;;;;;3.53;0.60;;;;;;;;;;5045588;28;20746;-31
2023/04/13 05:06:40;;;;;;;0.83;0.40;;;;;;;;;;5052750;28;20520;-30
2023/04/13 05:09:08;;;;;;;1.97;0.60;;;;;;;;;;5043669;28;20210;-32
2023/04/13 05:11:36;;;;;;;2.37;0.57;;;;;;;;;;5048751;28;20216;-32
2023/04/13 05:14:04;;;;;;;1.93;0.80;;;;;;;;;;5052008;28;20222;-32
2023/04/13 05:16:32;;;;;;;0.93;0.50;;;;;;;;;;5042826;28;20207;-33
2023/04/13 05:19:00;;;;;;;0.70;0.60;;;;;;;;;;5037664;28;20214;-29
2023/04/13 05:21:27;;;;;;;2.73;0.77;;;;;;;;;;5051077;28;20217;-33
2023/04/13 05:23:55;;;;;;;3.67;0.83;;;;;;;;;;5046850;28;22580;-31
2023/04/13 05:26:24;;;;;;;5.30;0.70;;;;;;;;;;5050349;28;20292;-35
2023/04/13 05:28:51;;;;;;;2.83;0.60;;;;;;;;;;5043075;28;20213;-29
2023/04/13 05:31:20;;;;;;;1.57;0.67;;;;;;;;;;5045871;28;20211;-32
2023/04/13 05:33:47;;;;;;;1.17;0.57;;;;;;;;;;5050743;28;20271;-34
2023/04/13 05:36:14;;;;;;;3.77;0.60;;;;;;;;;;5051623;28;20206;-33
2023/04/13 05:38:42;;;;;;;2.23;0.93;;;;;;;;;;5052569;28;20217;-32
2023/04/13 05:41:09;;;;;;;3.23;0.87;;;;;;;;;;5045225;28;20213;-31
2023/04/13 05:43:36;;;;;;;3.47;0.60;;;;;;;;;;5043861;28;20229;-31
2023/04/13 05:46:03;;;;;;;1.60;0.67;;;;;;;;;;5046539;28;20628;-33
2023/04/13 05:48:32;;;;;;;2.63;0.90;;;;;;;;;;5049209;28;20208;-32
2023/04/13 05:50:59;;;;;;;1.80;0.87;;;;;;;;;;5040677;28;20238;-33
2023/04/13 05:53:26;;;;;;;4.77;0.83;;;;;;;;;;5051647;28;20213;-31
2023/04/13 05:55:53;;;;;;;3.70;0.67;;;;;;;;;;5051722;28;20228;-31
2023/04/13 05:58:21;;;;;;;1.57;0.67;;;;;;;;;;5055885;28;20735;-31
2023/04/13 06:00:48;;;;;;;2.00;0.70;;;;;;;;;;5031569;28;20702;-35
2023/04/13 06:03:15;;;;;;;1.83;0.63;;;;;;;;;;5033777;28;20219;-34
2023/04/13 06:05:44;;;;;;;1.27;0.80;;;;;;;;;;5046961;28;20229;-29
2023/04/13 06:08:12;;;;;;;2.90;0.80;;;;;;;;;;5051948;28;20209;-32
2023/04/13 06:10:40;;;;;;;1.23;0.80;;;;;;;;;;5046088;28;20205;-32
2023/04/13 06:13:07;;;;;;;0.67;0.60;;;;;;;;;;5051625;28;20261;-31
2023/04/13 06:15:35;;;;;;;2.47;0.60;;;;;;;;;;5049557;28;20255;-32
2023/04/13 06:18:02;;;;;;;1.87;0.67;;;;;;;;;;5045410;28;20225;-30
2023/04/13 06:20:30;;;;;;;1.37;0.80;;;;;;;;;;5051795;28;20657;-30
2023/04/13 06:22:59;;;;;;;1.13;0.80;;;;;;;;;;5041061;28;20314;-30
2023/04/13 06:25:26;;;;;;;1.83;0.90;;;;;;;;;;5032739;28;20222;-34
2023/04/13 06:27:53;;;;;;;1.83;0.83;;;;;;;;;;5050667;28;20569;-33
2023/04/13 06:30:20;;;;;;;0.40;0.40;;;;;;;;;;5055820;28;20663;-31
2023/04/13 06:32:47;;;;;;;0.97;0.50;;;;;;;;;;5039327;28;20691;-31
2023/04/13 06:35:16;;;;;;;1.50;0.73;;;;;;;;;;5051065;28;20204;-35
2023/04/13 06:37:43;;;;;;;2.87;1.03;;;;;;;;;;5152484;22;20255;-28
2023/04/13 06:40:13;;;;;;;0.50;0.50;;;;;;;;;;5066218;28;20212;-27
2023/04/13 06:42:43;;;;;;;1.70;0.83;;;;;;;;;;5077413;28;20207;-27
2023/04/13 06:45:11;;;;;;;1.10;0.70;;;;;;;;;;5077394;28;20229;-26
2023/04/13 06:47:39;;;;;;;2.30;1.03;;;;;;;;;;5070948;28;20216;-30
2023/04/13 06:50:07;;;;;;;2.07;0.60;;;;;;;;;;5075842;28;20304;-30
2023/04/13 06:52:35;;;;;;;3.70;1.57;;;;;;;;;;5075540;28;20233;-29
2023/04/13 06:55:02;;;;;;;2.30;1.07;;;;;;;;;;5075798;28;20205;-29
2023/04/13 06:57:31;;;;;;;2.23;0.90;;;;;;;;;;5063713;28;20206;-29
2023/04/13 06:59:58;;;;;;;1.37;0.70;;;;;;;;;;5074868;28;20204;-30
2023/04/13 07:02:26;;;;;;;0.93;0.60;;;;;;;;;;5063077;28;20217;-30
2023/04/13 07:04:53;;;;;;;2.00;0.90;;;;;;;;;;5068127;28;20236;-27
2023/04/13 07:07:20;;;;;;;1.97;0.63;;;;;;;;;;5075800;28;20201;-30
2023/04/13 07:09:50;;;;;;;5.10;0.87;;;;;;;;;;5065532;28;20201;-30
2023/04/13 07:12:17;;;;;;;2.83;0.87;;;;;;;;;;5066958;28;20296;-30
2023/04/13 07:14:46;;;;;;;2.33;0.67;;;;;;;;;;5074520;28;20217;-28
2023/04/13 07:17:13;;;;;;;1.77;0.70;;;;;;;;;;5061748;28;20207;-29
2023/04/13 07:19:44;;;;;;;1.80;0.87;;;;;;;;;;5065720;28;20212;-30
2023/04/13 07:22:12;;;;;;;1.37;0.60;;;;;;;;;;5069342;28;20230;-29
2023/04/13 07:24:39;;;;;;;1.60;0.80;;;;;;;;;;5074930;28;20231;-30
2023/04/13 07:27:06;;;;;;;8.23;1.00;;;;;;;;;;5064744;28;20216;-26
2023/04/13 07:29:33;;;;;;;1.60;0.80;;;;;;;;;;5074158;28;20209;-31
2023/04/13 07:32:02;;;;;;;1.13;0.80;;;;;;;;;;5064467;28;20296;-26
2023/04/13 07:34:30;;;;;;;2.67;0.90;;;;;;;;;;5064352;28;20220;-26
2023/04/13 07:36:57;;;;;;;2.37;0.83;;;;;;;;;;5073416;28;20297;-26
2023/04/13 07:39:25;;;;;;;2.57;0.47;;;;;;;;;;5070776;28;20205;-29
2023/04/13 07:41:52;;;;;;;3.30;1.00;;;;;;;;;;5070503;28;20258;-28
2023/04/13 07:44:19;;;;;;;2.70;0.80;;;;;;;;;;5074263;28;20225;-30
2023/04/13 07:46:46;;;;;;;4.10;0.77;;;;;;;;;;5062109;28;20205;-28
2023/04/13 07:49:15;;;;;;;0.77;0.53;;;;;;;;;;5061619;28;20212;-31
2023/04/13 07:51:42;;;;;;;1.90;0.63;;;;;;;;;;5070748;28;20202;-29
2023/04/13 07:54:09;;;;;;;0.97;0.70;;;;;;;;;;5073173;28;20231;-30
2023/04/13 07:56:37;;;;;;;2.30;0.60;;;;;;;;;;5068158;28;20199;-29
2023/04/13 07:59:04;;;;;;;1.73;0.73;;;;;;;;;;5070245;28;20213;-28
2023/04/13 08:01:31;;;;;;;1.77;0.73;;;;;;;;;;5064243;28;20267;-31
2023/04/13 08:03:58;;;;;;;0.70;0.70;;;;;;;;;;5067080;28;20287;-27
2023/04/13 08:06:27;;;;;;;1.93;0.83;;;;;;;;;;5074280;28;20235;-29
2023/04/13 08:08:54;;;;;;;3.27;0.60;;;;;;;;;;5071941;28;20205;-29
2023/04/13 08:11:22;;;;;;;3.07;1.60;;;;;;;;;;5071366;28;20201;-26
2023/04/13 08:13:49;;;;;;;2.73;0.90;;;;;;;;;;5074624;28;20228;-28
2023/04/13 08:16:17;;;;;;;3.07;0.93;;;;;;;;;;5070427;28;20208;-28
2023/04/13 08:18:44;;;;;;;5.47;1.40;;;;;;;;;;5075085;28;20220;-27
2023/04/13 08:21:13;;;;;;;1.93;0.80;;;;;;;;;;5078383;28;20207;-27
2023/04/13 08:23:42;;;;;;;5.70;1.10;;;;;;;;;;5071020;28;20226;-29
2023/04/13 08:26:17;;;;;;;2.23;0.73;;;;;;;;;;5070003;28;20221;-29
2023/04/13 08:28:44;;;;;;;3.53;1.00;;;;;;;;;;5072384;28;20189;-31
2023/04/13 08:31:12;;;;;;;3.13;0.90;;;;;;;;;;5066911;28;20347;-28
2023/04/13 08:33:39;;;;;;;2.67;0.90;;;;;;;;;;5063783;28;20232;-27
2023/04/13 08:36:06;;;;;;;2.23;1.00;;;;;;;;;;5073276;28;20200;-27
2023/04/13 08:38:34;;;;;;;1.50;0.80;;;;;;;;;;5073860;28;20219;-29
2023/04/13 08:41:02;;;;;;;5.70;0.87;;;;;;;;;;5064532;28;20213;-27
2023/04/13 08:43:30;;;;;;;5.43;0.90;;;;;;;;;;5071332;28;20229;-32
2023/04/13 08:45:57;;;;;;;3.10;1.17;;;;;;;;;;5070516;28;20229;-28
2023/04/13 08:48:24;;;;;;;2.57;1.27;;;;;;;;;;5055306;28;20209;-30
2023/04/13 08:50:53;;;;;;;3.77;1.47;;;;;;;;;;5073818;28;20202;-30
2023/04/13 08:53:23;;;;;;;2.67;1.10;;;;;;;;;;5072998;28;20222;-26
2023/04/13 08:55:51;;;;;;;2.73;1.10;;;;;;;;;;5062848;28;20201;-31
2023/04/13 08:58:22;;;;;;;4.43;0.80;;;;;;;;;;5069551;28;20231;-32
2023/04/13 09:00:49;;;;;;;5.53;1.00;;;;;;;;;;5067544;28;20561;-27
2023/04/13 09:03:18;;;;;;;3.57;0.97;;;;;;;;;;5054818;28;20234;-27
2023/04/13 09:05:45;;;;;;;3.50;1.27;;;;;;;;;;5072302;28;20228;-27
2023/04/13 09:08:13;;;;;;;4.43;1.10;;;;;;;;;;5072622;28;20201;-28
2023/04/13 09:10:41;;;;;;;2.63;1.10;;;;;;;;;;5060178;28;20344;-29
2023/04/13 09:13:08;;;;;;;6.90;1.40;;;;;;;;;;5069525;28;20222;-27
2023/04/13 09:15:37;;;;;;;3.60;1.10;;;;;;;;;;5070498;28;20197;-29
2023/04/13 09:18:08;;;;;;;4.67;1.20;;;;;;;;;;5063531;28;20205;-29
2023/04/13 09:20:35;;;;;;;2.93;0.80;;;;;;;;;;5072522;28;20210;-28
2023/04/13 09:23:12;;;;;;;1.57;0.83;;;;;;;;;;5072654;28;20225;-29
2023/04/13 09:25:39;;;;;;;4.17;1.33;;;;;;;;;;5069853;28;20272;-29
2023/04/13 09:28:07;;;;;;;6.43;1.10;;;;;;;;;;5064205;28;20292;-29
2023/04/13 09:30:35;;;;;;;1.77;1.00;;;;;;;;;;5068035;28;20204;-26
2023/04/13 09:33:04;;;;;;;2.13;0.90;;;;;;;;;;5060030;28;20259;-30
2023/04/13 09:35:32;;;;;;;2.23;1.20;;;;;;;;;;5072768;28;20284;-26
2023/04/13 09:37:59;;;;;;;3.87;1.17;;;;;;;;;;5073321;28;20223;-29
2023/04/13 09:40:27;;;;;;;2.93;1.03;;;;;;;;;;5066299;28;20205;-26
2023/04/13 09:42:55;;;;;;;4.17;1.10;;;;;;;;;;5064365;28;20754;-29
2023/04/13 09:45:22;;;;;;;1.67;1.10;;;;;;;;;;5072641;28;20227;-31
2023/04/13 09:47:51;;;;;;;3.80;1.10;;;;;;;;;;5056159;28;20231;-29
2023/04/13 09:50:22;;;;;;;2.67;0.90;;;;;;;;;;5067481;28;20201;-27
2023/04/13 09:52:59;;;;;;;2.60;0.90;;;;;;;;;;5071998;28;20225;-27
2023/04/13 09:55:27;;;;;;;3.20;1.10;;;;;;;;;;5062714;28;20197;-27
2023/04/13 09:57:54;;;;;;;2.27;1.03;;;;;;;;;;5072617;28;20206;-26
2023/04/13 10:00:22;;;;;;;2.67;1.10;;;;;;;;;;5072147;28;20219;-27
2023/04/13 10:02:50;;;;;;;3.07;1.00;;;;;;;;;;5059755;28;20316;-27
2023/04/13 10:05:17;;;;;;;3.67;1.23;;;;;;;;;;5071780;28;20217;-29
2023/04/13 10:07:46;;;;;;;1.03;0.77;;;;;;;;;;5072885;28;20244;-29
2023/04/13 10:10:13;;;;;;;2.47;0.90;;;;;;;;;;5069822;28;20198;-29
2023/04/13 10:12:44;;;;;;;2.43;1.10;;;;;;;;;;5065381;28;20205;-29
2023/04/13 10:15:15;;;;;;;2.00;0.70;;;;;;;;;;5072447;28;20203;-28
2023/04/13 10:17:48;;;;;;;3.77;1.17;;;;;;;;;;5065052;28;20213;-28
2023/04/13 10:20:16;;;;;;;2.40;1.10;;;;;;;;;;5067560;28;20198;-26
2023/04/13 10:22:44;;;;;;;3.40;0.93;;;;;;;;;;5072373;28;20274;-31
2023/04/13 10:25:14;;;;;;;3.80;1.27;;;;;;;;;;5071519;28;20232;-30
2023/04/13 10:27:42;;;;;;;3.37;0.90;;;;;;;;;;5065210;28;20206;-28
2023/04/13 10:30:16;;;;;;;4.30;0.90;;;;;;;;;;5072861;28;20204;-28
2023/04/13 10:32:43;;;;;;;3.87;0.70;;;;;;;;;;5057455;28;20205;-29
2023/04/13 10:35:11;;;;;;;3.40;0.73;;;;;;;;;;5066639;28;20221;-31
2023/04/13 10:37:40;;;;;;;4.27;1.00;;;;;;;;;;5072456;28;20201;-29
2023/04/13 10:40:09;;;;;;;2.23;0.73;;;;;;;;;;5069408;28;20217;-29
2023/04/13 10:42:42;;;;;;;3.17;0.90;;;;;;;;;;5072276;28;20258;-29
2023/04/13 10:45:17;;;;;;;2.73;1.00;;;;;;;;;;5072651;28;20225;-29
2023/04/13 10:47:44;;;;;;;3.27;0.73;;;;;;;;;;5060015;28;20205;-30
2023/04/13 10:50:16;;;;;;;1.37;0.60;;;;;;;;;;5071765;28;20204;-29
2023/04/13 10:52:54;;;;;;;1.50;0.80;;;;;;;;;;5072594;28;20240;-29
2023/04/13 10:55:23;;;;;;;1.43;0.60;;;;;;;;;;5067344;28;20213;-29
2023/04/13 10:57:52;;;;;;;2.07;0.53;;;;;;;;;;5063774;28;20206;-29
2023/04/13 11:00:20;;;;;;;1.83;0.63;;;;;;;;;;5070136;28;20289;-28
2023/04/13 11:02:50;;;;;;;3.70;1.10;;;;;;;;;;5062279;28;20225;-28
2023/04/13 11:05:18;;;;;;;2.40;0.87;;;;;;;;;;5070287;28;20224;-30
2023/04/13 11:07:45;;;;;;;2.63;1.03;;;;;;;;;;5071469;28;20288;-31
2023/04/13 11:10:12;;;;;;;4.37;1.00;;;;;;;;;;5064868;28;20205;-28
2023/04/13 11:12:39;;;;;;;4.10;1.07;;;;;;;;;;5072732;28;20262;-30
2023/04/13 11:15:09;;;;;;;2.03;0.87;;;;;;;;;;5075421;28;20197;-31
2023/04/13 11:17:36;;;;;;;3.27;1.00;;;;;;;;;;5064758;28;20205;-29
2023/04/13 11:20:09;;;;;;;1.37;0.90;;;;;;;;;;5074811;28;20209;-28
2023/04/13 11:22:37;;;;;;;2.00;1.03;;;;;;;;;;5074852;28;20197;-29
2023/04/13 11:25:08;;;;;;;4.67;0.87;;;;;;;;;;5067523;28;20202;-30
2023/04/13 11:27:36;;;;;;;2.90;0.80;;;;;;;;;;5072764;28;20216;-28
2023/04/13 11:30:05;;;;;;;3.73;0.80;;;;;;;;;;5075024;28;20254;-29
2023/04/13 11:32:33;;;;;;;4.23;1.10;;;;;;;;;;5060727;28;20214;-29
2023/04/13 11:35:08;;;;;;;5.67;1.00;;;;;;;;;;5068749;28;20211;-30
2023/04/13 11:37:38;;;;;;;3.93;1.03;;;;;;;;;;5075014;28;20762;-27
2023/04/13 11:40:13;;;;;;;2.60;0.90;;;;;;;;;;5066922;28;20209;-27
2023/04/13 11:42:41;;;;;;;4.83;1.07;;;;;;;;;;5073445;28;20211;-29
2023/04/13 11:45:10;;;;;;;3.90;0.93;;;;;;;;;;5072783;28;20213;-31
2023/04/13 11:47:38;;;;;;;3.03;0.90;;;;;;;;;;5063963;28;20205;-26
2023/04/13 11:50:06;;;;;;;3.80;1.33;;;;;;;;;;5065974;28;20209;-28
2023/04/13 11:52:34;;;;;;;3.47;0.97;;;;;;;;;;5073926;28;20201;-29
2023/04/13 11:55:03;;;;;;;4.70;0.97;;;;;;;;;;5072915;28;20229;-28
2023/04/13 11:57:32;;;;;;;7.83;1.10;;;;;;;;;;5065721;28;20217;-28
2023/04/13 11:59:59;;;;;;;3.70;0.90;;;;;;;;;;5074024;28;20209;-30
2023/04/13 12:02:27;;;;;;;4.13;1.00;;;;;;;;;;5057884;28;20205;-29
2023/04/13 12:04:55;;;;;;;3.23;0.83;;;;;;;;;;5067491;28;20217;-30
2023/04/13 12:07:23;;;;;;;3.90;0.90;;;;;;;;;;5074296;28;20222;-31
2023/04/13 12:09:52;;;;;;;3.10;1.00;;;;;;;;;;5071064;28;20214;-31
2023/04/13 12:12:20;;;;;;;5.90;1.20;;;;;;;;;;5062114;28;20338;-28
2023/04/13 12:14:54;;;;;;;2.10;1.03;;;;;;;;;;5074058;28;20213;-28
2023/04/13 12:17:21;;;;;;;4.00;1.03;;;;;;;;;;5061065;28;20260;-30
2023/04/13 12:19:56;;;;;;;1.67;0.87;;;;;;;;;;5067046;28;20198;-30
2023/04/13 12:22:24;;;;;;;2.93;1.10;;;;;;;;;;5073973;28;20193;-28
2023/04/13 12:24:51;;;;;;;6.87;1.00;;;;;;;;;;5074515;28;20229;-29
2023/04/13 12:27:19;;;;;;;2.87;1.20;;;;;;;;;;5060795;28;20232;-30
2023/04/13 12:29:47;;;;;;;1.13;0.70;;;;;;;;;;5073226;28;20217;-28
2023/04/13 12:32:15;;;;;;;0.80;0.80;;;;;;;;;;5067707;28;20206;-29
2023/04/13 12:34:42;;;;;;;0.77;0.70;;;;;;;;;;5073802;28;20308;-30
2023/04/13 12:37:10;;;;;;;4.73;1.33;;;;;;;;;;5074165;28;20197;-28
2023/04/13 12:39:38;;;;;;;4.60;1.03;;;;;;;;;;5111175;22;20229;-90
2023/04/13 12:42:08;;;;;;;3.33;1.57;;;;;;;;;;5060897;28;20208;-90
2023/04/13 12:44:35;;;;;;;2.90;1.60;;;;;;;;;;5061828;28;20643;-90
2023/04/13 12:47:02;;;;;;;2.27;1.50;;;;;;;;;;5055040;28;20762;-90
2023/04/13 12:49:30;;;;;;;2.33;1.50;;;;;;;;;;5066413;28;20225;-90
2023/04/13 12:52:00;;;;;;;1.77;1.63;;;;;;;;;;5066200;28;20197;-90
2023/04/13 12:54:29;;;;;;;2.80;1.70;;;;;;;;;;5073682;28;20632;-91
2023/04/13 12:57:03;;;;;;;2.73;1.70;;;;;;;;;;5061157;28;20208;-90
2023/04/13 12:59:35;;;;;;;1.93;1.40;;;;;;;;;;5064482;28;20690;-90
2023/04/13 13:02:05;;;;;;;4.33;1.60;;;;;;;;;;5070143;28;20209;-90
2023/04/13 13:04:35;;;;;;;2.73;1.90;;;;;;;;;;5065244;28;20575;-90
2023/04/13 13:07:06;;;;;;;3.97;1.60;;;;;;;;;;5066100;28;20278;-90
2023/04/13 13:09:34;;;;;;;2.23;1.57;;;;;;;;;;5070217;28;20255;-90
2023/04/13 13:12:03;;;;;;;3.23;1.60;;;;;;;;;;5063484;28;20618;-90
2023/04/13 13:14:31;;;;;;;4.50;1.70;;;;;;;;;;5060876;28;20723;-90
2023/04/13 13:16:59;;;;;;;2.17;1.77;;;;;;;;;;5052061;28;20213;-90
2023/04/13 13:19:27;;;;;;;3.23;1.73;;;;;;;;;;5053318;28;20233;-90
2023/04/13 13:21:57;;;;;;;1.77;1.57;;;;;;;;;;5060023;28;20255;-90
2023/04/13 13:24:24;;;;;;;3.33;1.50;;;;;;;;;;5055920;28;20237;-90
2023/04/13 13:26:53;;;;;;;1.83;1.30;;;;;;;;;;5064684;28;20308;-90
2023/04/13 13:29:22;;;;;;;4.03;1.67;;;;;;;;;;5055932;28;20236;-90
2023/04/13 13:31:52;;;;;;;2.07;1.80;;;;;;;;;;5059486;28;20667;-90
2023/04/13 13:34:20;;;;;;;3.20;1.40;;;;;;;;;;5064309;28;20212;-90
2023/04/13 13:36:48;;;;;;;3.20;1.50;;;;;;;;;;5072306;28;20197;-90
2023/04/13 13:39:20;;;;;;;1.73;1.30;;;;;;;;;;5072798;28;20316;-90
2023/04/13 13:41:50;;;;;;;1.97;1.37;;;;;;;;;;5062219;28;20241;-90
2023/04/13 13:44:28;;;;;;;3.33;1.50;;;;;;;;;;5055676;28;20201;-90
2023/04/13 13:47:00;;;;;;;1.80;1.60;;;;;;;;;;5055103;28;20222;-90
2023/04/13 13:55:39;;;;;;;1.67;0.97;;;;;;;;;;5052494;28;20209;-90
2023/04/13 13:58:19;;;;;;;1.90;1.20;;;;;;;;;;5070491;28;20205;-90
2023/04/13 14:00:55;;;;;;;2.07;1.27;;;;;;;;;;5053247;28;20279;-90
2023/04/13 14:03:24;;;;;;;2.10;1.30;;;;;;;;;;5056821;28;20239;-90
2023/04/13 14:05:52;;;;;;;1.40;0.83;;;;;;;;;;5054921;28;20205;-90
2023/04/13 14:08:36;;;;;;;1.57;0.80;;;;;;;;;;5063908;28;20292;-90
2023/04/13 14:11:03;;;;;;;0.93;0.77;;;;;;;;;;5051747;28;20232;-90
2023/04/13 14:13:34;;;;;;;3.67;1.00;;;;;;;;;;5064003;28;20284;-90
2023/04/13 14:16:01;;;;;;;0.70;0.70;;;;;;;;;;5068538;28;20582;-90
2023/04/13 14:18:33;;;;;;;1.60;0.83;;;;;;;;;;5059391;28;20201;-89
2023/04/13 14:21:07;;;;;;;3.83;1.10;;;;;;;;;;5057766;28;20221;-90
2023/04/13 14:23:36;;;;;;;1.47;1.10;;;;;;;;;;5072734;28;20292;-90
2023/04/13 14:26:05;;;;;;;2.27;1.43;;;;;;;;;;5053444;28;20610;-90
2023/04/13 14:28:32;;;;;;;1.73;0.80;;;;;;;;;;5051925;28;20209;-90
2023/04/13 14:31:00;;;;;;;2.27;1.10;;;;;;;;;;5052656;28;20240;-90
2023/04/13 14:33:27;;;;;;;2.10;1.00;;;;;;;;;;5054075;28;20216;-90
2023/04/13 14:35:56;;;;;;;1.93;1.00;;;;;;;;;;5055867;28;20209;-90
2023/04/13 14:38:23;;;;;;;3.40;0.80;;;;;;;;;;5071939;28;20209;-89
2023/04/13 14:40:50;;;;;;;1.40;0.70;;;;;;;;;;5062057;28;20244;-89
2023/04/13 14:43:18;;;;;;;1.03;0.70;;;;;;;;;;5059722;28;20200;-90
2023/04/13 14:45:45;;;;;;;1.53;0.60;;;;;;;;;;5060332;28;20210;-90
2023/04/13 14:48:12;;;;;;;1.50;0.70;;;;;;;;;;5069273;28;20231;-90
2023/04/13 14:50:39;;;;;;;1.23;1.13;;;;;;;;;;5073504;28;20717;-90
2023/04/13 14:53:08;;;;;;;2.83;1.50;;;;;;;;;;5054760;28;20210;-91
2023/04/13 14:55:35;;;;;;;0.70;0.70;;;;;;;;;;5065960;28;20216;-90
2023/04/13 14:58:04;;;;;;;1.77;0.87;;;;;;;;;;5063693;28;20289;-90
2023/04/13 15:00:40;;;;;;;0.73;0.60;;;;;;;;;;5054813;28;20221;-91